sensor_id;sensor_type;location;lat;lon;timestamp;P1;durP1;ratioP1;P2;durP2;ratioP2
58470;SDS011;44258;51.288;12.068;2023-04-25T00:00:44;9.15;;;4.28;;
58470;SDS011;44258;51.288;12.068;2023-04-25T00:03:12;10.50;;;4.70;;
58470;SDS011;44258;51.288;12.068;2023-04-25T00:05:38;11.73;;;4.75;;
58470;SDS011;44258;51.288;12.068;2023-04-25T00:08:08;10.15;;;4.60;;
58470;SDS011;44258;51.288;12.068;2023-04-25T00:10:35;11.63;;;4.82;;
58470;SDS011;44258;51.288;12.068;2023-04-25T00:13:02;12.50;;;5.57;;
58470;SDS011;44258;51.288;12.068;2023-04-25T00:15:29;12.63;;;5.15;;
58470;SDS011;44258;51.288;12.068;2023-04-25T00:17:56;9.45;;;5.00;;
58470;SDS011;44258;51.288;12.068;2023-04-25T00:20:27;10.65;;;5.28;;
58470;SDS011;44258;51.288;12.068;2023-04-25T00:22:53;11.57;;;5.45;;
58470;SDS011;44258;51.288;12.068;2023-04-25T00:25:20;11.55;;;5.10;;
58470;SDS011;44258;51.288;12.068;2023-04-25T00:27:47;11.63;;;5.78;;
58470;SDS011;44258;51.288;12.068;2023-04-25T00:30:17;11.70;;;5.57;;
58470;SDS011;44258;51.288;12.068;2023-04-25T00:32:43;10.85;;;5.38;;
58470;SDS011;44258;51.288;12.068;2023-04-25T00:35:11;13.40;;;5.45;;
58470;SDS011;44258;51.288;12.068;2023-04-25T00:37:39;11.80;;;5.60;;
58470;SDS011;44258;51.288;12.068;2023-04-25T00:40:06;11.52;;;5.75;;
58470;SDS011;44258;51.288;12.068;2023-04-25T00:42:34;12.30;;;5.80;;
58470;SDS011;44258;51.288;12.068;2023-04-25T00:45:02;13.35;;;5.90;;
58470;SDS011;44258;51.288;12.068;2023-04-25T00:47:32;11.02;;;5.57;;
58470;SDS011;44258;51.288;12.068;2023-04-25T00:49:59;12.43;;;5.65;;
58470;SDS011;44258;51.288;12.068;2023-04-25T00:52:26;12.88;;;5.18;;
58470;SDS011;44258;51.288;12.068;2023-04-25T00:54:54;12.32;;;5.53;;
58470;SDS011;44258;51.288;12.068;2023-04-25T00:57:21;12.85;;;5.65;;
58470;SDS011;44258;51.288;12.068;2023-04-25T00:59:47;11.25;;;5.70;;
58470;SDS011;44258;51.288;12.068;2023-04-25T01:02:17;10.70;;;4.95;;
58470;SDS011;44258;51.288;12.068;2023-04-25T01:04:44;11.57;;;5.57;;
58470;SDS011;44258;51.288;12.068;2023-04-25T01:07:11;14.15;;;6.35;;
58470;SDS011;44258;51.288;12.068;2023-04-25T01:09:37;11.75;;;6.05;;
58470;SDS011;44258;51.288;12.068;2023-04-25T01:12:16;11.93;;;5.53;;
58470;SDS011;44258;51.288;12.068;2023-04-25T01:14:43;13.90;;;5.60;;
58470;SDS011;44258;51.288;12.068;2023-04-25T01:17:13;10.85;;;5.70;;
58470;SDS011;44258;51.288;12.068;2023-04-25T01:19:43;12.63;;;5.60;;
58470;SDS011;44258;51.288;12.068;2023-04-25T01:22:11;12.55;;;5.63;;
58470;SDS011;44258;51.288;12.068;2023-04-25T01:24:39;13.05;;;6.60;;
58470;SDS011;44258;51.288;12.068;2023-04-25T01:27:07;15.20;;;6.30;;
58470;SDS011;44258;51.288;12.068;2023-04-25T01:29:34;11.45;;;5.85;;
58470;SDS011;44258;51.288;12.068;2023-04-25T01:32:07;14.13;;;6.20;;
58470;SDS011;44258;51.288;12.068;2023-04-25T01:34:35;12.88;;;6.47;;
58470;SDS011;44258;51.288;12.068;2023-04-25T01:37:02;14.65;;;6.60;;
58470;SDS011;44258;51.288;12.068;2023-04-25T01:39:30;13.93;;;6.45;;
58470;SDS011;44258;51.288;12.068;2023-04-25T01:41:58;12.05;;;6.57;;
58470;SDS011;44258;51.288;12.068;2023-04-25T01:44:26;12.43;;;6.57;;
58470;SDS011;44258;51.288;12.068;2023-04-25T01:46:53;14.43;;;6.30;;
58470;SDS011;44258;51.288;12.068;2023-04-25T01:49:20;14.02;;;7.00;;
58470;SDS011;44258;51.288;12.068;2023-04-25T01:51:47;14.45;;;6.93;;
58470;SDS011;44258;51.288;12.068;2023-04-25T01:54:14;13.63;;;6.88;;
58470;SDS011;44258;51.288;12.068;2023-04-25T01:56:42;15.68;;;7.00;;
58470;SDS011;44258;51.288;12.068;2023-04-25T01:59:09;13.15;;;6.10;;
58470;SDS011;44258;51.288;12.068;2023-04-25T02:01:37;13.15;;;6.70;;
58470;SDS011;44258;51.288;12.068;2023-04-25T02:04:03;15.00;;;7.50;;
58470;SDS011;44258;51.288;12.068;2023-04-25T02:06:30;16.15;;;7.13;;
58470;SDS011;44258;51.288;12.068;2023-04-25T02:08:57;16.45;;;7.03;;
58470;SDS011;44258;51.288;12.068;2023-04-25T02:11:23;14.82;;;6.88;;
58470;SDS011;44258;51.288;12.068;2023-04-25T02:13:52;14.07;;;6.60;;
58470;SDS011;44258;51.288;12.068;2023-04-25T02:16:19;15.82;;;6.78;;
58470;SDS011;44258;51.288;12.068;2023-04-25T02:18:46;13.82;;;6.85;;
58470;SDS011;44258;51.288;12.068;2023-04-25T02:21:13;14.98;;;7.35;;
58470;SDS011;44258;51.288;12.068;2023-04-25T02:23:40;14.13;;;6.57;;
58470;SDS011;44258;51.288;12.068;2023-04-25T02:26:10;14.07;;;6.80;;
58470;SDS011;44258;51.288;12.068;2023-04-25T02:28:38;17.08;;;6.97;;
58470;SDS011;44258;51.288;12.068;2023-04-25T02:31:18;14.27;;;6.55;;
58470;SDS011;44258;51.288;12.068;2023-04-25T02:33:49;15.23;;;7.07;;
58470;SDS011;44258;51.288;12.068;2023-04-25T02:36:45;14.25;;;6.47;;
58470;SDS011;44258;51.288;12.068;2023-04-25T02:39:12;13.70;;;6.50;;
58470;SDS011;44258;51.288;12.068;2023-04-25T02:41:38;13.40;;;6.60;;
58470;SDS011;44258;51.288;12.068;2023-04-25T02:44:05;14.57;;;7.07;;
58470;SDS011;44258;51.288;12.068;2023-04-25T02:46:33;12.48;;;5.97;;
58470;SDS011;44258;51.288;12.068;2023-04-25T02:49:03;15.35;;;7.40;;
58470;SDS011;44258;51.288;12.068;2023-04-25T02:51:30;13.50;;;6.47;;
58470;SDS011;44258;51.288;12.068;2023-04-25T02:53:57;14.23;;;6.45;;
58470;SDS011;44258;51.288;12.068;2023-04-25T02:56:24;13.68;;;6.15;;
58470;SDS011;44258;51.288;12.068;2023-04-25T02:58:52;13.07;;;6.22;;
58470;SDS011;44258;51.288;12.068;2023-04-25T03:01:18;14.93;;;5.93;;
58470;SDS011;44258;51.288;12.068;2023-04-25T03:03:47;14.48;;;6.07;;
58470;SDS011;44258;51.288;12.068;2023-04-25T03:06:13;14.05;;;5.97;;
58470;SDS011;44258;51.288;12.068;2023-04-25T03:08:41;13.25;;;6.22;;
58470;SDS011;44258;51.288;12.068;2023-04-25T03:11:07;12.48;;;5.72;;
58470;SDS011;44258;51.288;12.068;2023-04-25T03:13:34;14.90;;;6.07;;
58470;SDS011;44258;51.288;12.068;2023-04-25T03:16:01;12.80;;;6.20;;
58470;SDS011;44258;51.288;12.068;2023-04-25T03:18:28;13.25;;;6.28;;
58470;SDS011;44258;51.288;12.068;2023-04-25T03:20:56;14.23;;;5.95;;
58470;SDS011;44258;51.288;12.068;2023-04-25T03:23:22;14.82;;;6.10;;
58470;SDS011;44258;51.288;12.068;2023-04-25T03:25:49;16.17;;;6.18;;
58470;SDS011;44258;51.288;12.068;2023-04-25T03:28:16;15.13;;;6.40;;
58470;SDS011;44258;51.288;12.068;2023-04-25T03:30:43;14.88;;;5.97;;
58470;SDS011;44258;51.288;12.068;2023-04-25T03:33:09;15.13;;;6.22;;
58470;SDS011;44258;51.288;12.068;2023-04-25T03:35:36;14.63;;;6.55;;
58470;SDS011;44258;51.288;12.068;2023-04-25T03:38:04;12.63;;;5.93;;
58470;SDS011;44258;51.288;12.068;2023-04-25T03:40:35;11.73;;;5.78;;
58470;SDS011;44258;51.288;12.068;2023-04-25T03:43:02;13.82;;;5.70;;
58470;SDS011;44258;51.288;12.068;2023-04-25T03:45:29;15.07;;;5.97;;
58470;SDS011;44258;51.288;12.068;2023-04-25T03:47:55;14.43;;;6.15;;
58470;SDS011;44258;51.288;12.068;2023-04-25T03:50:22;14.00;;;6.72;;
58470;SDS011;44258;51.288;12.068;2023-04-25T03:52:49;14.50;;;6.75;;
58470;SDS011;44258;51.288;12.068;2023-04-25T03:55:17;16.02;;;6.50;;
58470;SDS011;44258;51.288;12.068;2023-04-25T03:57:45;13.88;;;6.07;;
58470;SDS011;44258;51.288;12.068;2023-04-25T04:00:12;13.60;;;6.85;;
58470;SDS011;44258;51.288;12.068;2023-04-25T04:02:39;16.90;;;6.32;;
58470;SDS011;44258;51.288;12.068;2023-04-25T04:05:06;13.68;;;6.88;;
58470;SDS011;44258;51.288;12.068;2023-04-25T04:07:33;12.55;;;6.13;;
58470;SDS011;44258;51.288;12.068;2023-04-25T04:10:06;15.60;;;5.95;;
58470;SDS011;44258;51.288;12.068;2023-04-25T04:12:34;15.95;;;7.18;;
58470;SDS011;44258;51.288;12.068;2023-04-25T04:15:01;14.75;;;6.15;;
58470;SDS011;44258;51.288;12.068;2023-04-25T04:17:29;13.82;;;6.43;;
58470;SDS011;44258;51.288;12.068;2023-04-25T04:19:56;12.57;;;6.38;;
58470;SDS011;44258;51.288;12.068;2023-04-25T04:22:23;15.45;;;6.07;;
58470;SDS011;44258;51.288;12.068;2023-04-25T04:24:50;15.55;;;7.45;;
58470;SDS011;44258;51.288;12.068;2023-04-25T04:27:18;16.35;;;6.03;;
58470;SDS011;44258;51.288;12.068;2023-04-25T04:29:47;13.23;;;6.43;;
58470;SDS011;44258;51.288;12.068;2023-04-25T04:32:13;15.32;;;6.68;;
58470;SDS011;44258;51.288;12.068;2023-04-25T04:34:43;15.88;;;6.28;;
58470;SDS011;44258;51.288;12.068;2023-04-25T04:37:09;14.55;;;6.30;;
58470;SDS011;44258;51.288;12.068;2023-04-25T04:39:38;18.58;;;6.78;;
58470;SDS011;44258;51.288;12.068;2023-04-25T04:42:05;15.10;;;6.45;;
58470;SDS011;44258;51.288;12.068;2023-04-25T04:44:32;14.93;;;6.45;;
58470;SDS011;44258;51.288;12.068;2023-04-25T04:47:01;17.40;;;8.48;;
58470;SDS011;44258;51.288;12.068;2023-04-25T04:49:28;15.38;;;7.35;;
58470;SDS011;44258;51.288;12.068;2023-04-25T04:51:55;16.27;;;7.63;;
58470;SDS011;44258;51.288;12.068;2023-04-25T04:54:22;15.38;;;6.93;;
58470;SDS011;44258;51.288;12.068;2023-04-25T04:56:48;15.60;;;7.40;;
58470;SDS011;44258;51.288;12.068;2023-04-25T04:59:16;19.00;;;7.65;;
58470;SDS011;44258;51.288;12.068;2023-04-25T05:01:42;19.58;;;7.45;;
58470;SDS011;44258;51.288;12.068;2023-04-25T05:04:10;19.10;;;7.85;;
58470;SDS011;44258;51.288;12.068;2023-04-25T05:06:37;17.05;;;6.97;;
58470;SDS011;44258;51.288;12.068;2023-04-25T05:09:04;19.92;;;7.85;;
58470;SDS011;44258;51.288;12.068;2023-04-25T05:11:31;17.52;;;7.63;;
58470;SDS011;44258;51.288;12.068;2023-04-25T05:13:57;16.67;;;7.32;;
58470;SDS011;44258;51.288;12.068;2023-04-25T05:16:24;18.42;;;7.72;;
58470;SDS011;44258;51.288;12.068;2023-04-25T05:18:51;15.63;;;6.90;;
58470;SDS011;44258;51.288;12.068;2023-04-25T05:21:19;15.55;;;6.90;;
58470;SDS011;44258;51.288;12.068;2023-04-25T05:23:45;16.83;;;6.78;;
58470;SDS011;44258;51.288;12.068;2023-04-25T05:26:12;15.88;;;6.45;;
58470;SDS011;44258;51.288;12.068;2023-04-25T05:28:39;18.48;;;7.53;;
58470;SDS011;44258;51.288;12.068;2023-04-25T05:31:06;16.70;;;7.40;;
58470;SDS011;44258;51.288;12.068;2023-04-25T05:33:33;19.58;;;7.90;;
58470;SDS011;44258;51.288;12.068;2023-04-25T05:36:00;16.77;;;6.82;;
58470;SDS011;44258;51.288;12.068;2023-04-25T05:38:28;16.67;;;7.28;;
58470;SDS011;44258;51.288;12.068;2023-04-25T05:40:54;17.67;;;7.60;;
58470;SDS011;44258;51.288;12.068;2023-04-25T05:43:21;15.82;;;6.38;;
58470;SDS011;44258;51.288;12.068;2023-04-25T05:45:48;17.17;;;7.70;;
58470;SDS011;44258;51.288;12.068;2023-04-25T05:48:15;17.77;;;7.20;;
58470;SDS011;44258;51.288;12.068;2023-04-25T05:50:42;19.95;;;7.47;;
58470;SDS011;44258;51.288;12.068;2023-04-25T05:53:08;19.90;;;7.78;;
58470;SDS011;44258;51.288;12.068;2023-04-25T05:55:37;20.63;;;8.32;;
58470;SDS011;44258;51.288;12.068;2023-04-25T05:58:04;18.98;;;8.13;;
58470;SDS011;44258;51.288;12.068;2023-04-25T06:00:33;18.55;;;7.57;;
58470;SDS011;44258;51.288;12.068;2023-04-25T06:03:00;17.70;;;7.95;;
58470;SDS011;44258;51.288;12.068;2023-04-25T06:05:27;19.98;;;8.85;;
58470;SDS011;44258;51.288;12.068;2023-04-25T06:07:54;18.42;;;7.53;;
58470;SDS011;44258;51.288;12.068;2023-04-25T06:10:21;18.17;;;8.35;;
58470;SDS011;44258;51.288;12.068;2023-04-25T06:12:50;19.77;;;8.05;;
58470;SDS011;44258;51.288;12.068;2023-04-25T06:15:16;19.10;;;7.60;;
58470;SDS011;44258;51.288;12.068;2023-04-25T06:17:43;17.98;;;7.65;;
58470;SDS011;44258;51.288;12.068;2023-04-25T06:20:10;15.23;;;6.80;;
58470;SDS011;44258;51.288;12.068;2023-04-25T06:22:37;14.32;;;6.55;;
58470;SDS011;44258;51.288;12.068;2023-04-25T06:25:05;16.02;;;6.78;;
58470;SDS011;44258;51.288;12.068;2023-04-25T06:27:32;17.83;;;6.30;;
58470;SDS011;44258;51.288;12.068;2023-04-25T06:30:00;13.60;;;6.38;;
58470;SDS011;44258;51.288;12.068;2023-04-25T06:32:28;14.38;;;5.82;;
58470;SDS011;44258;51.288;12.068;2023-04-25T06:34:55;13.98;;;6.15;;
58470;SDS011;44258;51.288;12.068;2023-04-25T06:37:22;15.50;;;6.90;;
58470;SDS011;44258;51.288;12.068;2023-04-25T06:39:48;14.77;;;6.50;;
58470;SDS011;44258;51.288;12.068;2023-04-25T06:42:18;14.68;;;6.10;;
58470;SDS011;44258;51.288;12.068;2023-04-25T06:44:44;15.65;;;6.50;;
58470;SDS011;44258;51.288;12.068;2023-04-25T06:47:12;16.90;;;6.38;;
58470;SDS011;44258;51.288;12.068;2023-04-25T06:49:39;14.98;;;6.60;;
58470;SDS011;44258;51.288;12.068;2023-04-25T06:52:10;18.45;;;6.65;;
58470;SDS011;44258;51.288;12.068;2023-04-25T06:54:37;13.30;;;6.28;;
58470;SDS011;44258;51.288;12.068;2023-04-25T06:57:04;17.98;;;6.55;;
58470;SDS011;44258;51.288;12.068;2023-04-25T06:59:33;15.75;;;5.97;;
58470;SDS011;44258;51.288;12.068;2023-04-25T07:02:00;14.65;;;6.38;;
58470;SDS011;44258;51.288;12.068;2023-04-25T07:04:28;16.20;;;6.43;;
58470;SDS011;44258;51.288;12.068;2023-04-25T07:06:57;13.40;;;5.95;;
58470;SDS011;44258;51.288;12.068;2023-04-25T07:09:26;19.35;;;6.25;;
58470;SDS011;44258;51.288;12.068;2023-04-25T07:11:55;15.60;;;6.53;;
58470;SDS011;44258;51.288;12.068;2023-04-25T07:14:22;14.30;;;5.70;;
58470;SDS011;44258;51.288;12.068;2023-04-25T07:16:49;12.05;;;5.97;;
58470;SDS011;44258;51.288;12.068;2023-04-25T07:19:16;15.35;;;6.68;;
58470;SDS011;44258;51.288;12.068;2023-04-25T07:21:44;13.40;;;6.22;;
58470;SDS011;44258;51.288;12.068;2023-04-25T07:24:14;15.82;;;6.32;;
58470;SDS011;44258;51.288;12.068;2023-04-25T07:26:40;10.82;;;5.47;;
58470;SDS011;44258;51.288;12.068;2023-04-25T07:29:07;15.02;;;6.07;;
58470;SDS011;44258;51.288;12.068;2023-04-25T07:31:36;13.13;;;6.25;;
58470;SDS011;44258;51.288;12.068;2023-04-25T07:34:03;14.77;;;6.07;;
58470;SDS011;44258;51.288;12.068;2023-04-25T07:36:30;13.13;;;5.63;;
58470;SDS011;44258;51.288;12.068;2023-04-25T07:38:59;15.02;;;6.10;;
58470;SDS011;44258;51.288;12.068;2023-04-25T07:41:25;14.02;;;5.82;;
58470;SDS011;44258;51.288;12.068;2023-04-25T07:43:52;13.18;;;5.85;;
58470;SDS011;44258;51.288;12.068;2023-04-25T07:46:18;13.30;;;6.40;;
58470;SDS011;44258;51.288;12.068;2023-04-25T07:48:45;15.82;;;6.28;;
58470;SDS011;44258;51.288;12.068;2023-04-25T07:51:12;11.52;;;5.13;;
58470;SDS011;44258;51.288;12.068;2023-04-25T07:53:38;10.52;;;4.18;;
58470;SDS011;44258;51.288;12.068;2023-04-25T07:56:07;11.90;;;3.95;;
58470;SDS011;44258;51.288;12.068;2023-04-25T07:58:34;9.45;;;3.80;;
58470;SDS011;44258;51.288;12.068;2023-04-25T08:01:04;8.57;;;3.45;;
58470;SDS011;44258;51.288;12.068;2023-04-25T08:03:31;6.93;;;2.72;;
58470;SDS011;44258;51.288;12.068;2023-04-25T08:05:58;8.02;;;2.97;;
58470;SDS011;44258;51.288;12.068;2023-04-25T08:08:25;8.52;;;2.92;;
58470;SDS011;44258;51.288;12.068;2023-04-25T08:10:52;8.68;;;2.70;;
58470;SDS011;44258;51.288;12.068;2023-04-25T08:13:20;10.98;;;3.10;;
58470;SDS011;44258;51.288;12.068;2023-04-25T08:15:47;9.23;;;2.83;;
58470;SDS011;44258;51.288;12.068;2023-04-25T08:18:13;11.35;;;3.55;;
58470;SDS011;44258;51.288;12.068;2023-04-25T08:20:40;8.70;;;2.55;;
58470;SDS011;44258;51.288;12.068;2023-04-25T08:23:07;7.40;;;2.63;;
58470;SDS011;44258;51.288;12.068;2023-04-25T08:25:36;13.38;;;2.97;;
58470;SDS011;44258;51.288;12.068;2023-04-25T08:28:02;9.77;;;2.35;;
58470;SDS011;44258;51.288;12.068;2023-04-25T08:30:31;11.85;;;3.03;;
58470;SDS011;44258;51.288;12.068;2023-04-25T08:32:57;8.50;;;2.70;;
58470;SDS011;44258;51.288;12.068;2023-04-25T08:35:24;7.05;;;2.30;;
58470;SDS011;44258;51.288;12.068;2023-04-25T08:37:50;12.85;;;3.25;;
58470;SDS011;44258;51.288;12.068;2023-04-25T08:40:17;12.80;;;2.95;;
58470;SDS011;44258;51.288;12.068;2023-04-25T08:42:52;10.07;;;2.88;;
58470;SDS011;44258;51.288;12.068;2023-04-25T08:45:20;7.20;;;2.47;;
58470;SDS011;44258;51.288;12.068;2023-04-25T08:47:48;9.55;;;2.25;;
58470;SDS011;44258;51.288;12.068;2023-04-25T08:50:17;6.43;;;1.90;;
58470;SDS011;44258;51.288;12.068;2023-04-25T08:52:46;11.73;;;2.50;;
58470;SDS011;44258;51.288;12.068;2023-04-25T08:55:19;8.57;;;2.20;;
58470;SDS011;44258;51.288;12.068;2023-04-25T08:57:56;12.10;;;2.65;;
58470;SDS011;44258;51.288;12.068;2023-04-25T09:00:25;12.07;;;2.60;;
58470;SDS011;44258;51.288;12.068;2023-04-25T09:02:53;10.18;;;2.85;;
58470;SDS011;44258;51.288;12.068;2023-04-25T09:05:21;8.55;;;2.70;;
58470;SDS011;44258;51.288;12.068;2023-04-25T09:07:48;11.50;;;2.67;;
58470;SDS011;44258;51.288;12.068;2023-04-25T09:10:15;9.13;;;2.65;;
58470;SDS011;44258;51.288;12.068;2023-04-25T09:12:42;8.90;;;2.55;;
58470;SDS011;44258;51.288;12.068;2023-04-25T09:15:09;9.73;;;2.63;;
58470;SDS011;44258;51.288;12.068;2023-04-25T09:17:38;12.52;;;3.35;;
58470;SDS011;44258;51.288;12.068;2023-04-25T09:20:11;10.73;;;3.13;;
58470;SDS011;44258;51.288;12.068;2023-04-25T09:22:40;16.17;;;3.53;;
58470;SDS011;44258;51.288;12.068;2023-04-25T09:25:08;13.23;;;3.60;;
58470;SDS011;44258;51.288;12.068;2023-04-25T09:27:36;12.75;;;3.47;;
58470;SDS011;44258;51.288;12.068;2023-04-25T09:30:16;14.02;;;3.47;;
58470;SDS011;44258;51.288;12.068;2023-04-25T09:32:43;13.18;;;3.75;;
58470;SDS011;44258;51.288;12.068;2023-04-25T09:35:11;12.73;;;4.10;;
58470;SDS011;44258;51.288;12.068;2023-04-25T09:37:55;12.82;;;3.72;;
58470;SDS011;44258;51.288;12.068;2023-04-25T09:40:22;12.52;;;3.53;;
58470;SDS011;44258;51.288;12.068;2023-04-25T09:42:49;13.55;;;3.70;;
58470;SDS011;44258;51.288;12.068;2023-04-25T09:45:16;12.07;;;3.50;;
58470;SDS011;44258;51.288;12.068;2023-04-25T09:47:43;11.80;;;3.92;;
58470;SDS011;44258;51.288;12.068;2023-04-25T09:50:14;11.38;;;4.03;;
58470;SDS011;44258;51.288;12.068;2023-04-25T09:52:44;13.20;;;4.15;;
58470;SDS011;44258;51.288;12.068;2023-04-25T09:55:11;13.63;;;4.32;;
58470;SDS011;44258;51.288;12.068;2023-04-25T09:57:37;15.25;;;4.45;;
58470;SDS011;44258;51.288;12.068;2023-04-25T10:00:06;10.90;;;4.45;;
58470;SDS011;44258;51.288;12.068;2023-04-25T10:02:38;15.25;;;4.82;;
58470;SDS011;44258;51.288;12.068;2023-04-25T10:05:08;11.95;;;4.15;;
58470;SDS011;44258;51.288;12.068;2023-04-25T10:07:38;12.68;;;4.30;;
58470;SDS011;44258;51.288;12.068;2023-04-25T10:10:06;13.38;;;4.28;;
58470;SDS011;44258;51.288;12.068;2023-04-25T10:12:33;12.48;;;4.82;;
58470;SDS011;44258;51.288;12.068;2023-04-25T10:15:00;11.75;;;5.00;;
58470;SDS011;44258;51.288;12.068;2023-04-25T10:17:29;11.18;;;4.50;;
58470;SDS011;44258;51.288;12.068;2023-04-25T10:19:57;14.80;;;4.85;;
58470;SDS011;44258;51.288;12.068;2023-04-25T10:22:29;12.68;;;4.63;;
58470;SDS011;44258;51.288;12.068;2023-04-25T10:25:01;13.30;;;5.05;;
58470;SDS011;44258;51.288;12.068;2023-04-25T10:27:29;13.27;;;4.40;;
58470;SDS011;44258;51.288;12.068;2023-04-25T10:30:03;11.85;;;4.60;;
58470;SDS011;44258;51.288;12.068;2023-04-25T10:32:31;13.25;;;4.82;;
58470;SDS011;44258;51.288;12.068;2023-04-25T10:35:04;12.75;;;4.60;;
58470;SDS011;44258;51.288;12.068;2023-04-25T10:37:37;11.07;;;4.28;;
58470;SDS011;44258;51.288;12.068;2023-04-25T10:40:09;11.45;;;4.53;;
58470;SDS011;44258;51.288;12.068;2023-04-25T10:42:40;13.73;;;4.47;;
58470;SDS011;44258;51.288;12.068;2023-04-25T10:45:07;11.88;;;4.60;;
58470;SDS011;44258;51.288;12.068;2023-04-25T10:47:35;12.43;;;4.47;;
58470;SDS011;44258;51.288;12.068;2023-04-25T10:50:04;11.82;;;4.40;;
58470;SDS011;44258;51.288;12.068;2023-04-25T10:52:32;12.27;;;4.97;;
58470;SDS011;44258;51.288;12.068;2023-04-25T10:54:59;20.85;;;5.78;;
58470;SDS011;44258;51.288;12.068;2023-04-25T10:57:38;14.60;;;4.97;;
58470;SDS011;44258;51.288;12.068;2023-04-25T11:00:07;14.43;;;4.80;;
58470;SDS011;44258;51.288;12.068;2023-04-25T11:02:37;14.07;;;4.50;;
58470;SDS011;44258;51.288;12.068;2023-04-25T11:05:08;14.73;;;4.40;;
58470;SDS011;44258;51.288;12.068;2023-04-25T11:07:46;15.13;;;4.53;;
58470;SDS011;44258;51.288;12.068;2023-04-25T11:10:16;12.88;;;4.60;;
58470;SDS011;44258;51.288;12.068;2023-04-25T11:12:46;10.77;;;3.92;;
58470;SDS011;44258;51.288;12.068;2023-04-25T11:15:13;12.73;;;4.40;;
58470;SDS011;44258;51.288;12.068;2023-04-25T11:17:40;13.90;;;4.75;;
58470;SDS011;44258;51.288;12.068;2023-04-25T11:20:08;12.13;;;4.25;;
58470;SDS011;44258;51.288;12.068;2023-04-25T11:22:38;11.23;;;3.95;;
58470;SDS011;44258;51.288;12.068;2023-04-25T11:25:10;12.85;;;4.65;;
58470;SDS011;44258;51.288;12.068;2023-04-25T11:27:38;13.32;;;4.25;;
58470;SDS011;44258;51.288;12.068;2023-04-25T11:30:20;11.55;;;4.53;;
58470;SDS011;44258;51.288;12.068;2023-04-25T11:32:48;12.68;;;4.00;;
58470;SDS011;44258;51.288;12.068;2023-04-25T11:35:15;10.88;;;4.53;;
58470;SDS011;44258;51.288;12.068;2023-04-25T11:37:42;14.45;;;5.30;;
58470;SDS011;44258;51.288;12.068;2023-04-25T11:40:10;13.07;;;7.10;;
58470;SDS011;44258;51.288;12.068;2023-04-25T11:42:37;15.02;;;6.40;;
58470;SDS011;44258;51.288;12.068;2023-04-25T11:45:06;17.00;;;5.43;;
58470;SDS011;44258;51.288;12.068;2023-04-25T11:47:36;11.45;;;4.60;;
58470;SDS011;44258;51.288;12.068;2023-04-25T11:50:04;10.35;;;4.05;;
58470;SDS011;44258;51.288;12.068;2023-04-25T11:52:36;8.52;;;3.58;;
58470;SDS011;44258;51.288;12.068;2023-04-25T11:55:05;10.10;;;3.78;;
58470;SDS011;44258;51.288;12.068;2023-04-25T11:57:33;13.57;;;4.60;;
58470;SDS011;44258;51.288;12.068;2023-04-25T12:00:10;12.00;;;4.50;;
58470;SDS011;44258;51.288;12.068;2023-04-25T12:02:43;10.93;;;3.88;;
58470;SDS011;44258;51.288;12.068;2023-04-25T12:05:12;10.73;;;3.67;;
58470;SDS011;44258;51.288;12.068;2023-04-25T12:07:40;13.02;;;4.15;;
58470;SDS011;44258;51.288;12.068;2023-04-25T12:10:08;10.75;;;3.53;;
58470;SDS011;44258;51.288;12.068;2023-04-25T12:12:36;10.10;;;3.35;;
58470;SDS011;44258;51.288;12.068;2023-04-25T12:15:10;9.38;;;3.28;;
58470;SDS011;44258;51.288;12.068;2023-04-25T12:17:40;12.98;;;3.83;;
58470;SDS011;44258;51.288;12.068;2023-04-25T12:20:11;11.95;;;3.05;;
58470;SDS011;44258;51.288;12.068;2023-04-25T12:22:40;10.45;;;2.90;;
58470;SDS011;44258;51.288;12.068;2023-04-25T12:25:09;11.20;;;3.20;;
58470;SDS011;44258;51.288;12.068;2023-04-25T12:27:37;11.30;;;3.22;;
58470;SDS011;44258;51.288;12.068;2023-04-25T12:30:05;10.77;;;3.13;;
58470;SDS011;44258;51.288;12.068;2023-04-25T12:32:36;9.77;;;3.40;;
58470;SDS011;44258;51.288;12.068;2023-04-25T12:35:03;7.80;;;3.55;;
58470;SDS011;44258;51.288;12.068;2023-04-25T12:37:32;9.15;;;3.40;;
58470;SDS011;44258;51.288;12.068;2023-04-25T12:39:59;10.48;;;3.90;;
58470;SDS011;44258;51.288;12.068;2023-04-25T12:42:27;11.15;;;3.63;;
58470;SDS011;44258;51.288;12.068;2023-04-25T12:44:54;9.18;;;2.60;;
58470;SDS011;44258;51.288;12.068;2023-04-25T12:47:20;8.68;;;2.13;;
58470;SDS011;44258;51.288;12.068;2023-04-25T12:49:47;10.23;;;2.70;;
58470;SDS011;44258;51.288;12.068;2023-04-25T12:52:13;9.85;;;2.50;;
58470;SDS011;44258;51.288;12.068;2023-04-25T12:54:42;9.40;;;2.90;;
58470;SDS011;44258;51.288;12.068;2023-04-25T12:57:12;9.20;;;2.40;;
58470;SDS011;44258;51.288;12.068;2023-04-25T12:59:40;11.50;;;2.47;;
58470;SDS011;44258;51.288;12.068;2023-04-25T13:02:07;9.82;;;2.55;;
58470;SDS011;44258;51.288;12.068;2023-04-25T13:04:34;9.85;;;2.40;;
58470;SDS011;44258;51.288;12.068;2023-04-25T13:07:01;10.48;;;2.78;;
58470;SDS011;44258;51.288;12.068;2023-04-25T13:09:28;6.78;;;2.20;;
58470;SDS011;44258;51.288;12.068;2023-04-25T13:12:00;9.05;;;2.20;;
58470;SDS011;44258;51.288;12.068;2023-04-25T13:14:27;8.48;;;2.33;;
58470;SDS011;44258;51.288;12.068;2023-04-25T13:16:54;8.98;;;2.40;;
58470;SDS011;44258;51.288;12.068;2023-04-25T13:19:20;7.45;;;2.15;;
58470;SDS011;44258;51.288;12.068;2023-04-25T13:21:47;8.48;;;2.72;;
58470;SDS011;44258;51.288;12.068;2023-04-25T13:24:13;8.90;;;2.47;;
58470;SDS011;44258;51.288;12.068;2023-04-25T13:26:40;8.18;;;2.50;;
58470;SDS011;44258;51.288;12.068;2023-04-25T13:29:08;7.07;;;2.17;;
58470;SDS011;44258;51.288;12.068;2023-04-25T13:31:35;7.60;;;2.13;;
58470;SDS011;44258;51.288;12.068;2023-04-25T13:34:01;10.38;;;2.55;;
58470;SDS011;44258;51.288;12.068;2023-04-25T13:36:28;6.38;;;2.13;;
58470;SDS011;44258;51.288;12.068;2023-04-25T13:38:55;8.25;;;2.42;;
58470;SDS011;44258;51.288;12.068;2023-04-25T13:41:22;5.18;;;1.75;;
58470;SDS011;44258;51.288;12.068;2023-04-25T13:43:49;5.95;;;2.17;;
58470;SDS011;44258;51.288;12.068;2023-04-25T13:46:16;7.72;;;2.40;;
58470;SDS011;44258;51.288;12.068;2023-04-25T13:48:43;5.75;;;2.10;;
58470;SDS011;44258;51.288;12.068;2023-04-25T13:51:14;7.70;;;2.00;;
58470;SDS011;44258;51.288;12.068;2023-04-25T13:53:42;6.35;;;1.75;;
58470;SDS011;44258;51.288;12.068;2023-04-25T13:56:09;6.68;;;2.30;;
58470;SDS011;44258;51.288;12.068;2023-04-25T13:58:38;6.93;;;1.98;;
58470;SDS011;44258;51.288;12.068;2023-04-25T14:01:05;10.63;;;2.50;;
58470;SDS011;44258;51.288;12.068;2023-04-25T14:03:33;7.72;;;2.60;;
58470;SDS011;44258;51.288;12.068;2023-04-25T14:06:05;8.15;;;2.00;;
58470;SDS011;44258;51.288;12.068;2023-04-25T14:08:31;10.52;;;1.95;;
58470;SDS011;44258;51.288;12.068;2023-04-25T14:10:58;7.70;;;1.98;;
58470;SDS011;44258;51.288;12.068;2023-04-25T14:13:29;7.25;;;2.20;;
58470;SDS011;44258;51.288;12.068;2023-04-25T14:15:57;6.03;;;1.50;;
58470;SDS011;44258;51.288;12.068;2023-04-25T14:18:23;6.13;;;2.10;;
58470;SDS011;44258;51.288;12.068;2023-04-25T14:20:52;7.13;;;1.70;;
58470;SDS011;44258;51.288;12.068;2023-04-25T14:23:19;6.05;;;1.75;;
58470;SDS011;44258;51.288;12.068;2023-04-25T14:25:45;7.28;;;2.08;;
58470;SDS011;44258;51.288;12.068;2023-04-25T14:28:12;7.53;;;2.38;;